Time;durP1;ratioP1;P1;durP2;ratioP2;P2;SDS_P1;SDS_P2;PMS_P1;PMS_P2;Temp;Humidity;BMP_temperature;BMP_pressure;BME280_temperature;BME280_humidity;BME280_pressure;Samples;Min_cycle;Max_cycle;Signal;HPM_P1;HPM_P2
2023/01/23 00:01:31;;;;;;;17.08;15.70;;;9.50;99.90;;;;;;4939898;29;20042;-90
2023/01/23 00:03:59;;;;;;;16.98;15.20;;;9.60;99.90;;;;;;4940688;29;20118;-92
2023/01/23 00:06:29;;;;;;;17.85;15.05;;;9.60;99.90;;;;;;4940688;29;20113;-90
2023/01/23 00:08:57;;;;;;;24.92;14.55;;;9.70;99.90;;;;;;4940637;29;20051;-90
2023/01/23 00:11:27;;;;;;;27.23;15.75;;;9.70;99.90;;;;;;4940962;29;20031;-91
2023/01/23 00:13:55;;;;;;;25.90;14.25;;;9.70;99.90;;;;;;4940695;29;20077;-92
2023/01/23 00:16:23;;;;;;;20.15;13.70;;;9.80;99.90;;;;;;4940788;29;20128;-91
2023/01/23 00:18:51;;;;;;;23.50;13.48;;;9.80;99.90;;;;;;4940642;29;20031;-92
2023/01/23 00:21:21;;;;;;;16.23;13.05;;;9.80;99.90;;;;;;4941057;29;20065;-92
2023/01/23 00:23:52;;;;;;;19.40;12.57;;;9.70;99.90;;;;;;4959601;29;20035;-90
2023/01/23 00:26:22;;;;;;;18.17;16.05;;;9.70;99.90;;;;;;4957416;29;20377;-90
2023/01/23 00:28:50;;;;;;;13.50;11.63;;;9.70;99.90;;;;;;4939861;29;20496;-91
2023/01/23 00:31:46;;;;;;;12.50;9.40;;;9.70;99.90;;;;;;4940542;29;20059;-91
2023/01/23 00:34:19;;;;;;;12.65;9.65;;;9.60;99.90;;;;;;4934306;29;20035;-91
2023/01/23 00:36:48;;;;;;;17.23;9.70;;;9.60;99.90;;;;;;4955837;29;20030;-93
2023/01/23 00:39:18;;;;;;;10.38;9.25;;;9.60;99.90;;;;;;4939907;29;20035;-92
2023/01/23 00:41:46;;;;;;;14.93;8.98;;;9.50;99.90;;;;;;4955892;29;20122;-91
2023/01/23 00:44:14;;;;;;;11.07;8.95;;;9.50;99.90;;;;;;4939830;29;20427;-91
2023/01/23 00:46:41;;;;;;;9.10;8.25;;;9.50;99.90;;;;;;4939989;29;20118;-91
2023/01/23 00:49:08;;;;;;;13.13;8.30;;;9.50;99.90;;;;;;4939867;29;20024;-92
2023/01/23 00:51:35;;;;;;;8.20;7.57;;;9.40;99.90;;;;;;4940048;29;20035;-91
2023/01/23 00:54:02;;;;;;;14.07;8.35;;;9.50;99.90;;;;;;4939787;29;20094;-90
2023/01/23 01:01:27;;;;;;;;;;;;;;;;;;;;;
2023/01/23 01:05:17;;;;;;;;;;;;;;;;;;;;;
2023/01/23 01:09:12;;;;;;;11.80;6.30;;;9.60;99.90;;;;;;5505459;23;20716;-93
2023/01/23 01:12:52;;;;;;;8.63;6.88;;;9.60;99.90;;;;;;4895830;29;20044;-92
2023/01/23 02:39:20;;;;;;;9.38;6.10;;;9.50;99.90;;;;;;2741428;23;20296;-94
2023/01/23 05:16:55;;;;;;;5.18;4.90;;;8.30;99.90;;;;;;2194467;23;20411;-92
2023/01/23 05:19:43;;;;;;;7.10;4.57;;;8.40;99.90;;;;;;4906396;29;20103;-94
2023/01/23 05:22:12;;;;;;;8.63;4.50;;;8.30;99.90;;;;;;4905775;29;20031;-93
2023/01/23 05:25:36;;;;;;;7.72;4.70;;;8.30;99.90;;;;;;4902257;29;20020;-92
2023/01/23 05:29:26;;;;;;;7.78;4.68;;;8.30;99.90;;;;;;4915777;29;20044;-91
2023/01/23 05:32:18;;;;;;;4.43;4.13;;;8.30;99.90;;;;;;4894317;29;20061;-92
2023/01/23 05:41:35;;;;;;;7.65;5.40;;;8.10;99.90;;;;;;4938333;29;20062;-91
2023/01/23 05:44:35;;;;;;;11.82;5.90;;;8.20;99.90;;;;;;4952426;29;20051;-93
2023/01/23 09:28:06;;;;;;;;;;;;;;;;;;;;;
2023/01/23 10:33:10;;;;;;;15.48;14.57;;;14.30;99.90;;;;;;4844896;29;20089;-92
2023/01/23 10:36:51;;;;;;;;;;;;;;;;;;;;;
2023/01/23 10:41:22;;;;;;;;;;;;;;;;;;;;;
2023/01/23 10:43:39;;;;;;;14.90;13.93;;;14.60;99.90;;;;;;4834399;29;20094;-93
2023/01/23 10:47:02;;;;;;;15.35;14.35;;;14.40;99.90;;;;;;4829851;29;20034;-92
2023/01/23 10:57:29;;;;;;;19.90;17.98;;;14.00;99.90;;;;;;4752142;30;20376;-92
2023/01/23 11:00:29;;;;;;;16.23;14.82;;;14.10;99.90;;;;;;4740707;30;20056;-94
2023/01/23 11:03:20;;;;;;;17.02;15.70;;;14.10;99.90;;;;;;4755402;30;20484;-91
2023/01/23 11:06:06;;;;;;;;;;;14.00;99.90;;;;;;4754632;30;20038;-92
2023/01/23 11:08:49;;;;;;;15.95;14.45;;;13.80;99.90;;;;;;4768159;30;19913;-90
2023/01/23 11:11:18;;;;;;;15.60;14.27;;;14.00;99.90;;;;;;4789866;30;20066;-89
2023/01/23 11:13:47;;;;;;;15.20;14.30;;;14.00;99.90;;;;;;4804703;29;20686;-91
2023/01/23 11:16:22;;;;;;;14.95;13.90;;;13.80;99.90;;;;;;4804632;29;20046;-94
2023/01/23 11:18:54;;;;;;;14.68;13.60;;;13.90;99.90;;;;;;4804757;29;20031;-93
2023/01/23 11:21:29;;;;;;;15.43;14.23;;;13.90;99.90;;;;;;4804967;29;20129;-92
2023/01/23 11:24:19;;;;;;;16.48;15.00;;;14.00;99.90;;;;;;4819939;29;20031;-91
2023/01/23 11:26:57;;;;;;;17.60;16.00;;;13.70;99.90;;;;;;4804534;29;20510;-92
2023/01/23 11:29:27;;;;;;;14.63;13.63;;;13.90;99.90;;;;;;4833225;29;20057;-93
2023/01/23 11:32:03;;;;;;;16.25;15.02;;;14.30;99.90;;;;;;4822243;29;20512;-92
2023/01/23 11:34:39;;;;;;;16.67;15.27;;;14.50;99.90;;;;;;4903732;29;20051;-93
2023/01/23 11:37:29;;;;;;;15.82;14.77;;;14.50;99.90;;;;;;4903753;29;20091;-91
2023/01/23 11:40:06;;;;;;;15.63;14.40;;;14.40;99.90;;;;;;4904446;29;20036;-93
2023/01/23 11:42:38;;;;;;;15.40;14.40;;;14.40;99.90;;;;;;4903429;29;20489;-93
2023/01/23 11:45:18;;;;;;;14.20;13.50;;;14.60;99.90;;;;;;4903607;29;20462;-92
2023/01/23 11:48:16;;;;;;;15.80;14.60;;;14.50;99.90;;;;;;4907532;29;20032;-91
2023/01/23 11:50:48;;;;;;;15.45;14.55;;;14.10;99.90;;;;;;4894762;29;20028;-93
2023/01/23 11:53:43;;;;;;;15.52;14.40;;;14.20;99.90;;;;;;4903377;29;20487;-92
2023/01/23 11:56:53;;;;;;;15.30;14.20;;;14.30;99.90;;;;;;4901871;29;20028;-91
2023/01/23 11:59:50;;;;;;;15.32;14.52;;;14.10;99.90;;;;;;4907986;29;20036;-91
2023/01/23 12:03:00;;;;;;;15.98;15.00;;;14.20;99.90;;;;;;4902860;29;20032;-93
2023/01/23 12:06:01;;;;;;;15.82;14.80;;;14.40;99.90;;;;;;4862073;29;20519;-92
2023/01/23 12:09:17;;;;;;;16.50;15.27;;;14.30;99.90;;;;;;4861095;29;20061;-92
2023/01/23 12:12:03;;;;;;;;;;;14.50;99.90;;;;;;4896692;29;20040;-90
2023/01/23 12:14:33;;;;;;;15.88;14.70;;;14.60;99.90;;;;;;4918378;29;19911;-92
2023/01/23 12:17:07;;;;;;;17.25;16.13;;;14.70;99.90;;;;;;4887116;29;20060;-91
2023/01/23 12:20:02;;;;;;;16.05;14.80;;;14.60;99.90;;;;;;4887472;29;20035;-94
2023/01/23 12:22:54;;;;;;;15.80;14.77;;;14.80;99.90;;;;;;4903719;29;20032;-91
2023/01/23 12:25:34;;;;;;;15.70;14.80;;;14.80;99.90;;;;;;4902738;29;20028;-91
2023/01/23 12:28:21;;;;;;;16.00;15.00;;;15.00;99.90;;;;;;4922770;29;20056;-92
2023/01/23 12:31:06;;;;;;;15.45;14.55;;;14.70;99.90;;;;;;4921190;29;20062;-93
2023/01/23 12:33:47;;;;;;;15.82;14.82;;;14.50;99.90;;;;;;4953039;29;20536;-94
2023/01/23 12:36:51;;;;;;;15.45;14.35;;;14.30;99.90;;;;;;4953789;29;20091;-91
2023/01/23 12:39:59;;;;;;;15.70;14.48;;;14.10;99.90;;;;;;4941507;29;20023;-91
2023/01/23 12:42:33;;;;;;;18.05;16.52;;;14.10;99.90;;;;;;4926335;29;20044;-92
2023/01/23 12:45:26;;;;;;;16.95;15.85;;;14.20;99.90;;;;;;4937807;29;20035;-93
2023/01/23 12:47:57;;;;;;;17.08;16.00;;;14.60;99.90;;;;;;4936946;29;20059;-92
2023/01/23 12:50:47;;;;;;;17.08;15.95;;;14.70;99.90;;;;;;4952655;29;20401;-93
2023/01/23 12:53:17;;;;;;;16.55;15.55;;;14.90;99.90;;;;;;4922363;29;20024;-91
2023/01/23 12:56:11;;;;;;;17.27;16.02;;;15.00;99.90;;;;;;4953259;29;20035;-91
2023/01/23 12:58:44;;;;;;;16.65;15.60;;;15.10;99.90;;;;;;4936564;29;20060;-94
2023/01/23 13:01:31;;;;;;;;;;;15.10;99.90;;;;;;4951829;29;20043;-92
2023/01/23 13:04:26;;;;;;;16.60;15.50;;;15.00;99.90;;;;;;4953739;29;19933;-94
2023/01/23 13:07:04;;;;;;;18.65;16.77;;;14.80;99.90;;;;;;4920797;29;20035;-93
2023/01/23 13:10:05;;;;;;;17.45;16.15;;;14.70;99.90;;;;;;4936846;29;20098;-92
2023/01/23 13:12:37;;;;;;;17.08;15.73;;;14.30;99.90;;;;;;5037750;23;20051;-93
2023/01/23 13:15:16;;;;;;;17.30;16.08;;;14.20;99.90;;;;;;4958942;28;20035;-93
2023/01/23 13:17:58;;;;;;;21.23;19.33;;;14.20;99.90;;;;;;4959577;28;20039;-93
2023/01/23 13:23:36;;;;;;;18.48;17.05;;;14.40;99.90;;;;;;4956412;29;20035;-96
2023/01/23 13:26:29;;;;;;;16.23;15.25;;;14.60;99.90;;;;;;4939714;29;20118;-91
2023/01/23 13:29:02;;;;;;;17.55;16.45;;;14.30;99.90;;;;;;4954069;28;20047;-93
2023/01/23 13:31:40;;;;;;;16.73;15.63;;;14.10;99.90;;;;;;4940318;29;20477;-92
2023/01/23 13:34:16;;;;;;;16.05;15.05;;;14.10;99.90;;;;;;4941646;29;20063;-91
2023/01/23 13:36:45;;;;;;;16.80;15.65;;;14.20;99.90;;;;;;4949317;29;20446;-92
2023/01/23 13:39:24;;;;;;;16.75;15.75;;;14.20;99.90;;;;;;5036107;23;20574;-94
2023/01/23 13:42:17;;;;;;;17.83;16.65;;;14.20;99.90;;;;;;4921157;29;20073;-90
2023/01/23 13:45:25;;;;;;;17.13;16.10;;;14.20;99.90;;;;;;4920428;29;20099;-92
2023/01/23 13:51:24;;;;;;;17.10;16.00;;;13.80;99.90;;;;;;4901513;29;20032;-92
2023/01/23 17:20:05;;;;;;;;;;;;;;;;;;;;;
2023/01/23 19:15:22;;;;;;;41.58;27.25;;;6.30;99.90;;;;;;4976443;28;20147;-92
2023/01/23 19:18:23;;;;;;;51.42;30.90;;;6.20;99.90;;;;;;4966775;28;20039;-92
2023/01/23 19:21:32;;;;;;;54.03;30.27;;;6.20;99.90;;;;;;4983276;23;20489;-93
2023/01/23 19:24:34;;;;;;;;;;;;;;;;;;;;;
2023/01/23 19:33:06;;;;;;;46.38;29.63;;;5.90;99.90;;;;;;4980530;28;20054;-93
2023/01/23 19:49:11;;;;;;;51.55;28.73;;;5.80;99.90;;;;;;5464260;23;20640;-91
2023/01/23 19:52:05;;;;;;;52.83;29.45;;;5.70;99.90;;;;;;4964007;28;20069;-93
2023/01/23 19:57:37;;;;;;;54.22;30.08;;;5.70;99.90;;;;;;5046290;23;20051;-92
2023/01/23 20:00:22;;;;;;;55.90;31.83;;;5.70;99.90;;;;;;4960443;29;20042;-92
2023/01/23 20:02:57;;;;;;;53.22;29.98;;;5.70;99.90;;;;;;4961756;28;20066;-94
2023/01/23 20:05:47;;;;;;;47.42;28.67;;;5.60;99.90;;;;;;4941493;29;20027;-92
2023/01/23 20:13:52;;;;;;;71.45;40.92;;;5.40;99.90;;;;;;5421458;23;20059;-91
2023/01/23 20:16:24;;;;;;;61.00;37.75;;;5.40;99.90;;;;;;4944519;28;20023;-94
2023/01/23 20:19:03;;;;;;;55.60;35.58;;;5.40;99.90;;;;;;4944054;28;20063;-92
2023/01/23 20:21:36;;;;;;;61.33;36.85;;;5.50;99.90;;;;;;4944129;28;20038;-91
2023/01/23 20:24:03;;;;;;;62.17;39.30;;;5.50;99.90;;;;;;4944497;28;20031;-93
2023/01/23 20:26:33;;;;;;;66.70;40.55;;;5.50;99.90;;;;;;4945874;28;20492;-93
2023/01/23 20:29:10;;;;;;;70.75;38.88;;;5.50;99.90;;;;;;4945955;28;20054;-93
2023/01/23 20:31:58;;;;;;;67.45;40.05;;;5.50;99.90;;;;;;4965991;28;20095;-94
2023/01/23 20:35:01;;;;;;;71.10;45.05;;;5.50;99.90;;;;;;4949464;28;20030;-91
2023/01/23 20:43:10;;;;;;;73.18;44.67;;;5.30;99.90;;;;;;4922828;29;20051;-93
2023/01/23 20:45:47;;;;;;;71.82;42.92;;;5.30;99.90;;;;;;4904500;29;20115;-94
2023/01/23 20:48:57;;;;;;;69.45;40.92;;;5.30;99.90;;;;;;4906501;29;20040;-92
2023/01/23 20:51:26;;;;;;;;;;;5.20;99.90;;;;;;4901297;29;20044;-93
2023/01/23 20:54:30;;;;;;;62.65;38.95;;;5.20;99.90;;;;;;4892221;29;19947;-92
2023/01/23 20:57:07;;;;;;;52.28;32.50;;;5.10;99.90;;;;;;4863794;29;20049;-92
2023/01/23 20:59:40;;;;;;;59.37;35.27;;;5.10;99.90;;;;;;4850153;29;20129;-93
2023/01/23 21:02:49;;;;;;;60.75;35.53;;;5.20;99.90;;;;;;4869981;29;20523;-91
